Time;durP1;ratioP1;P1;durP2;ratioP2;P2;SDS_P1;SDS_P2;PMS_P1;PMS_P2;Temp;Humidity;BMP_temperature;BMP_pressure;BME280_temperature;BME280_humidity;BME280_pressure;Samples;Min_cycle;Max_cycle;Signal;HPM_P1;HPM_P2
2022/11/02 00:00:51;;;;;;;11.73;2.30;;;;;;;11.37;100.00;101091.41;4992444;28;20083;-49
2022/11/02 00:03:16;;;;;;;5.68;2.53;;;;;;;11.00;100.00;101033.72;4991855;28;20038;-53
2022/11/02 00:05:41;;;;;;;10.55;2.65;;;;;;;11.37;100.00;101089.63;4992293;28;20045;-49
2022/11/02 00:08:07;;;;;;;5.70;2.00;;;;;;;11.45;100.00;101098.16;4993489;28;20375;-52
2022/11/02 00:10:32;;;;;;;9.30;2.38;;;;;;;11.51;100.00;101089.19;4992022;28;20041;-56
2022/11/02 00:12:57;;;;;;;9.88;2.72;;;;;;;11.53;100.00;101133.03;4993113;28;20502;-53
2022/11/02 00:15:25;;;;;;;8.95;1.77;;;;;;;11.21;100.00;101096.25;4993009;28;20447;-52
2022/11/02 00:17:54;;;;;;;5.88;1.75;;;;;;;11.26;100.00;101170.78;4993093;28;20038;-58
2022/11/02 00:20:20;;;;;;;5.45;1.15;;;;;;;10.72;100.00;101145.13;4992810;28;20486;-58
2022/11/02 00:22:47;;;;;;;7.25;1.27;;;;;;;10.50;100.00;101153.66;4993139;28;20026;-58
2022/11/02 00:25:14;;;;;;;5.10;1.65;;;;;;;10.29;100.00;101136.69;4991951;28;20034;-56
2022/11/02 00:27:41;;;;;;;5.35;1.30;;;;;;;9.84;100.00;101066.81;4993018;28;20046;-60
2022/11/02 00:30:07;;;;;;;7.32;1.48;;;;;;;9.78;100.00;101022.31;4992894;28;20113;-57
2022/11/02 00:32:32;;;;;;;7.78;1.98;;;;;;;10.13;100.00;101086.22;5007580;28;20045;-58
2022/11/02 00:34:57;;;;;;;5.00;1.23;;;;;;;9.71;100.00;101004.97;4992892;28;20034;-57
2022/11/02 00:37:23;;;;;;;4.95;1.25;;;;;;;10.13;100.00;101080.09;4993002;28;20049;-54
2022/11/02 00:39:48;;;;;;;8.82;1.48;;;;;;;10.09;100.00;101083.69;4996183;28;20119;-54
2022/11/02 00:42:14;;;;;;;5.78;1.35;;;;;;;10.11;100.00;101088.00;4996884;28;20418;-56
2022/11/02 00:44:40;;;;;;;6.95;1.40;;;;;;;10.12;100.00;101091.50;4996715;28;20482;-58
2022/11/02 00:47:05;;;;;;;4.47;1.20;;;;;;;10.08;100.00;101090.72;4996626;28;20050;-58
2022/11/02 00:49:30;;;;;;;5.50;1.33;;;;;;;10.09;100.00;101083.69;4996848;28;20053;-53
2022/11/02 00:51:56;;;;;;;2.40;0.75;;;;;;;9.72;100.00;101030.34;4996715;28;20597;-55
2022/11/02 00:54:21;;;;;;;7.45;1.10;;;;;;;9.97;100.00;101081.38;4996623;28;20381;-54
2022/11/02 00:56:46;;;;;;;3.40;0.90;;;;;;;9.96;100.00;101098.94;4996824;28;20046;-53
2022/11/02 00:59:11;;;;;;;4.15;1.40;;;;;;;9.93;100.00;101095.50;4996643;28;20035;-57
2022/11/02 01:01:37;;;;;;;5.07;1.60;;;;;;;9.55;100.00;101031.63;4996408;28;20050;-54
2022/11/02 01:04:03;;;;;;;4.50;1.38;;;;;;;9.94;100.00;101094.63;4996786;28;20085;-54
2022/11/02 01:06:28;;;;;;;6.38;1.35;;;;;;;9.84;100.00;101091.34;4996574;28;20097;-52
2022/11/02 01:08:53;;;;;;;5.28;1.05;;;;;;;9.91;100.00;101105.22;4996452;28;20117;-54
2022/11/02 01:11:23;;;;;;;5.45;0.90;;;;;;;9.57;100.00;101048.22;4996436;28;20043;-55
2022/11/02 01:13:51;;;;;;;5.40;1.08;;;;;;;9.55;100.00;101051.78;4996416;28;20027;-53
2022/11/02 01:16:17;;;;;;;5.22;1.23;;;;;;;9.48;100.00;101048.47;4995109;28;20109;-54
2022/11/02 01:18:42;;;;;;;6.15;1.58;;;;;;;9.15;100.00;100982.75;4996360;28;20038;-57
2022/11/02 01:21:08;;;;;;;11.40;1.67;;;;;;;9.49;100.00;101060.69;4996391;28;20034;-55
2022/11/02 01:23:34;;;;;;;9.85;1.95;;;;;;;9.32;100.00;101023.44;4996265;28;20042;-55
2022/11/02 01:26:07;;;;;;;10.15;1.50;;;;;;;9.79;100.00;101131.81;4996364;28;20038;-56
2022/11/02 01:28:32;;;;;;;11.38;1.63;;;;;;;9.78;100.00;101111.69;4994704;28;20524;-53
2022/11/02 01:30:58;;;;;;;9.27;1.67;;;;;;;9.35;100.00;101031.25;4996103;28;20648;-51
2022/11/02 01:33:24;;;;;;;10.52;2.00;;;;;;;9.81;100.00;101103.69;4995905;28;20041;-49
2022/11/02 01:35:50;;;;;;;6.65;1.27;;;;;;;9.47;100.00;101043.22;4995980;28;20038;-58
2022/11/02 01:38:15;;;;;;;5.25;1.55;;;;;;;9.75;100.00;101098.63;5011131;28;20168;-50
2022/11/02 01:40:41;;;;;;;9.13;1.95;;;;;;;9.86;100.00;101088.69;4994716;28;20026;-54
2022/11/02 01:43:26;;;;;;;8.18;1.50;;;;;;;9.89;100.00;101093.88;4995848;28;20056;-49
2022/11/02 01:45:59;;;;;;;4.50;1.42;;;;;;;9.90;100.00;101088.56;4994547;28;20038;-54
2022/11/02 01:48:36;;;;;;;6.40;1.42;;;;;;;9.96;100.00;101074.41;4995627;28;20030;-55
2022/11/02 01:51:05;;;;;;;6.75;1.60;;;;;;;9.72;100.00;101019.84;4994721;28;20084;-55
2022/11/02 01:53:33;;;;;;;10.70;2.00;;;;;;;10.13;100.00;101075.72;4978070;28;20485;-55
2022/11/02 01:55:59;;;;;;;5.82;1.70;;;;;;;9.87;100.00;101025.53;4994566;28;20049;-53
2022/11/02 01:58:25;;;;;;;12.52;1.40;;;;;;;9.87;100.00;101017.66;5010837;28;20477;-48
2022/11/02 02:00:50;;;;;;;5.28;1.27;;;;;;;10.34;100.00;101092.69;4995667;28;20038;-56
2022/11/02 02:03:17;;;;;;;6.93;1.48;;;;;;;10.39;100.00;101114.47;4995448;28;20050;-50
2022/11/02 02:06:09;;;;;;;9.40;2.20;;;;;;;10.48;100.00;101103.69;4994370;28;20034;-52
2022/11/02 02:08:38;;;;;;;9.73;2.20;;;;;;;10.16;100.00;101040.56;5008762;28;20050;-54
2022/11/02 02:11:26;;;;;;;6.20;1.65;;;;;;;10.65;100.00;101108.50;5010693;28;20117;-57
2022/11/02 02:13:54;;;;;;;8.38;1.80;;;;;;;10.75;100.00;101115.22;4995253;28;20034;-51
2022/11/02 02:16:31;;;;;;;7.95;1.40;;;;;;;10.81;100.00;101119.44;4995453;28;20466;-57
2022/11/02 02:18:59;;;;;;;10.07;1.70;;;;;;;10.83;100.00;101094.78;4995089;28;20489;-56
2022/11/02 02:21:41;;;;;;;6.95;1.90;;;;;;;10.90;100.00;101091.06;5010306;28;20041;-51
2022/11/02 02:24:25;;;;;;;13.73;1.73;;;;;;;10.92;100.00;101091.00;5009995;28;20077;-55
2022/11/02 02:26:58;;;;;;;4.93;1.30;;;;;;;10.97;100.00;101118.97;4995226;28;20041;-52
2022/11/02 02:29:30;;;;;;;6.85;1.60;;;;;;;10.60;100.00;101034.91;5010161;28;20026;-52
2022/11/02 02:32:00;;;;;;;5.05;1.60;;;;;;;10.89;100.00;101093.75;4993777;28;20037;-58
2022/11/02 02:34:37;;;;;;;5.25;1.67;;;;;;;10.54;100.00;101036.84;4994950;28;20034;-57
2022/11/02 02:37:06;;;;;;;7.13;1.60;;;;;;;10.58;100.00;101046.41;5009922;28;20117;-53
2022/11/02 02:39:46;;;;;;;5.22;1.30;;;;;;;10.85;100.00;101118.47;4994662;28;20037;-52
2022/11/02 02:42:31;;;;;;;7.05;1.63;;;;;;;10.62;100.00;101079.63;4994928;28;20030;-54
2022/11/02 02:45:33;;;;;;;6.15;1.58;;;;;;;10.82;100.00;101102.75;4994755;28;20033;-53
2022/11/02 02:48:13;;;;;;;3.78;1.35;;;;;;;10.72;100.00;101084.56;4994356;28;20049;-51
2022/11/02 02:50:50;;;;;;;6.35;1.75;;;;;;;10.83;100.00;101109.75;5009796;28;20034;-52
2022/11/02 02:53:19;;;;;;;7.45;1.70;;;;;;;10.50;100.00;101041.38;4994502;28;20034;-55
2022/11/02 02:55:45;;;;;;;13.57;1.95;;;;;;;10.52;100.00;101046.56;4994585;28;20438;-55
2022/11/02 02:58:16;;;;;;;8.90;2.30;;;;;;;10.50;100.00;101040.50;4992691;28;20027;-51
2022/11/02 03:00:42;;;;;;;6.68;1.90;;;;;;;10.81;100.00;101101.00;5008981;28;20389;-53
2022/11/02 03:03:08;;;;;;;7.40;2.03;;;;;;;10.64;100.00;101078.69;4994099;28;20034;-51
2022/11/02 03:05:35;;;;;;;8.77;2.05;;;;;;;10.72;100.00;101112.66;5009545;28;20597;-54
2022/11/02 03:08:06;;;;;;;9.75;2.30;;;;;;;10.30;100.00;101035.81;4994405;28;20103;-53
2022/11/02 03:10:34;;;;;;;11.50;3.00;;;;;;;10.70;100.00;101122.38;5009235;28;20035;-58
2022/11/02 03:13:17;;;;;;;10.38;2.55;;;;;;;10.70;100.00;101104.81;4993023;28;20037;-59
2022/11/02 03:15:49;;;;;;;12.52;2.50;;;;;;;10.65;100.00;101109.34;4992900;28;20184;-55
2022/11/02 03:18:45;;;;;;;10.90;2.20;;;;;;;10.68;100.00;101119.78;4992722;28;20053;-54
2022/11/02 03:21:24;;;;;;;14.88;2.55;;;;;;;10.69;100.00;101126.78;4992227;28;20349;-56
2022/11/02 03:23:59;;;;;;;8.27;2.17;;;;;;;10.42;100.00;101074.06;4993749;28;20546;-50
2022/11/02 03:26:29;;;;;;;11.27;2.65;;;;;;;10.71;100.00;101121.50;4994043;28;20061;-56
2022/11/02 03:28:55;;;;;;;12.80;3.00;;;;;;;10.81;100.00;101141.38;5009091;28;20037;-55
2022/11/02 03:31:31;;;;;;;11.65;3.60;;;;;;;10.85;100.00;101135.13;4993656;28;20042;-56
2022/11/02 03:34:03;;;;;;;10.00;2.55;;;;;;;10.82;100.00;101143.13;5008593;28;20026;-56
2022/11/02 03:36:32;;;;;;;14.63;3.47;;;;;;;10.58;100.00;101099.91;4993686;28;20037;-56
2022/11/02 03:39:03;;;;;;;15.95;3.63;;;;;;;10.78;100.00;101162.53;4993710;28;20026;-57
2022/11/02 03:41:30;;;;;;;16.10;3.42;;;;;;;10.74;100.00;101153.84;5008590;28;20031;-57
2022/11/02 03:44:00;;;;;;;12.93;3.92;;;;;;;10.35;100.00;101104.94;5008336;28;20034;-54
2022/11/02 03:46:26;;;;;;;16.95;3.75;;;;;;;10.64;100.00;101160.28;4993505;28;20060;-54
2022/11/02 03:48:53;;;;;;;13.05;2.97;;;;;;;10.67;100.00;101173.38;5008950;28;20289;-56
2022/11/02 03:51:20;;;;;;;16.70;4.10;;;;;;;10.68;100.00;101164.53;4992207;28;20526;-54
2022/11/02 03:54:07;;;;;;;15.30;3.97;;;;;;;10.74;100.00;101172.28;4993359;28;20038;-49
2022/11/02 03:56:38;;;;;;;19.90;3.70;;;;;;;10.30;100.00;101092.81;4993460;28;20042;-53
2022/11/02 03:59:04;;;;;;;15.52;2.80;;;;;;;10.61;100.00;101156.88;5008650;28;20022;-53
2022/11/02 04:01:29;;;;;;;13.73;3.75;;;;;;;10.60;100.00;101161.25;4993594;28;20379;-50
2022/11/02 04:03:55;;;;;;;13.68;4.20;;;;;;;10.36;100.00;101126.88;5008511;28;20088;-55
2022/11/02 04:06:20;;;;;;;14.70;3.25;;;;;;;10.69;100.00;101183.84;4993123;28;20054;-53
2022/11/02 04:08:47;;;;;;;15.43;3.22;;;;;;;10.36;100.00;101156.66;4991992;28;20034;-51
2022/11/02 04:16:41;;;;;;;15.52;3.13;;;;;;;10.70;100.00;101225.94;4993296;28;20113;-58
2022/11/02 04:19:26;;;;;;;16.73;3.72;;;;;;;10.63;100.00;101220.84;4993112;28;20474;-56
2022/11/02 04:27:19;;;;;;;11.35;2.90;;;;;;;10.35;100.00;101270.72;4991841;28;20049;-53
2022/11/02 04:29:45;;;;;;;9.88;1.98;;;;;;;10.23;100.00;101257.88;4992979;28;20035;-55
2022/11/02 04:32:10;;;;;;;12.10;2.40;;;;;;;9.83;100.00;101202.69;4992867;28;20042;-54
2022/11/02 04:34:35;;;;;;;16.98;3.17;;;;;;;10.18;100.00;101277.28;4992964;28;20434;-55
2022/11/02 04:38:38;;;;;;;16.60;2.22;;;;;;;10.19;100.00;101281.66;4992884;28;20034;-57
2022/11/02 04:39:46;;;;;;;11.48;2.85;;;;;;;9.85;100.00;101226.31;4992900;28;20046;-59
2022/11/02 04:42:11;;;;;;;14.50;2.85;;;;;;;10.19;100.00;101287.75;4992799;28;20445;-51
2022/11/02 04:44:36;;;;;;;14.07;2.13;;;;;;;9.88;100.00;101231.50;4992668;28;20038;-58
2022/11/02 04:47:02;;;;;;;11.50;2.10;;;;;;;10.25;100.00;101299.91;4992625;28;20066;-56
2022/11/02 04:49:27;;;;;;;12.80;2.47;;;;;;;10.09;100.00;101278.34;4992681;28;20096;-53
2022/11/02 04:51:52;;;;;;;9.38;2.45;;;;;;;10.26;100.00;101305.16;5007682;28;20482;-52
2022/11/02 04:54:18;;;;;;;18.02;2.47;;;;;;;10.26;100.00;101304.28;4992607;28;20085;-51
2022/11/02 04:56:43;;;;;;;13.02;2.85;;;;;;;10.24;100.00;101295.56;4992689;28;20065;-59
2022/11/02 04:59:08;;;;;;;10.40;2.25;;;;;;;10.34;100.00;101310.22;4992521;28;20042;-56
2022/11/02 05:01:34;;;;;;;16.25;2.95;;;;;;;10.08;100.00;101256.44;4992538;28;20367;-55
2022/11/02 05:03:59;;;;;;;11.20;2.03;;;;;;;10.38;100.00;101331.19;4992587;28;20031;-52
2022/11/02 05:06:24;;;;;;;17.83;2.60;;;;;;;10.35;100.00;101336.50;4992654;28;20034;-52
2022/11/02 05:08:50;;;;;;;11.23;2.00;;;;;;;9.99;100.00;101284.69;4992722;28;20037;-56
2022/11/02 05:11:15;;;;;;;10.77;2.17;;;;;;;10.46;100.00;101362.56;4992465;28;20042;-59
2022/11/02 05:13:41;;;;;;;12.75;1.95;;;;;;;10.49;100.00;101355.47;4992292;28;20088;-53
2022/11/02 05:16:09;;;;;;;7.70;2.05;;;;;;;10.59;100.00;101369.28;4992775;28;20092;-56
2022/11/02 05:18:34;;;;;;;14.27;3.05;;;;;;;10.56;100.00;101357.06;5007956;28;20026;-58
2022/11/02 05:21:00;;;;;;;8.35;1.80;;;;;;;10.52;100.00;101358.03;4992614;28;20026;-50
2022/11/02 05:23:27;;;;;;;13.38;1.80;;;;;;;10.43;100.00;101339.81;4991013;28;20492;-53
2022/11/02 05:25:57;;;;;;;9.90;1.77;;;;;;;10.81;100.00;101404.72;4994246;28;20394;-55
2022/11/02 05:28:23;;;;;;;6.65;1.90;;;;;;;10.83;100.00;101420.50;4995861;28;20065;-53
2022/11/02 05:30:48;;;;;;;8.80;1.40;;;;;;;10.79;100.00;101417.06;4994839;28;20074;-55
2022/11/02 05:33:14;;;;;;;9.23;1.60;;;;;;;10.64;100.00;101415.66;4995800;28;20050;-55
2022/11/02 05:35:39;;;;;;;6.10;1.48;;;;;;;10.72;100.00;101418.97;4994918;28;20093;-54
2022/11/02 05:38:04;;;;;;;4.05;1.58;;;;;;;10.37;100.00;101375.94;5011011;28;20046;-54
2022/11/02 05:40:30;;;;;;;11.63;2.30;;;;;;;10.65;100.00;101441.06;4995827;28;20034;-52
2022/11/02 05:42:59;;;;;;;8.25;1.88;;;;;;;10.52;100.00;101430.84;4995884;28;20382;-52
2022/11/02 05:45:25;;;;;;;6.60;1.65;;;;;;;10.52;100.00;101436.13;4996068;28;20042;-54
2022/11/02 05:47:50;;;;;;;7.38;1.73;;;;;;;10.55;100.00;101441.31;5010926;28;20026;-54
2022/11/02 05:50:15;;;;;;;6.63;1.77;;;;;;;10.63;100.00;101456.03;4995636;28;20100;-56
2022/11/02 05:52:40;;;;;;;3.05;1.35;;;;;;;10.40;100.00;101402.19;4995761;28;20034;-54
2022/11/02 05:55:06;;;;;;;5.88;1.20;;;;;;;10.53;100.00;101420.31;5010793;28;20054;-57
2022/11/02 05:57:31;;;;;;;10.68;1.92;;;;;;;10.84;100.00;101478.38;4995609;28;20058;-55
2022/11/02 05:59:57;;;;;;;4.78;1.30;;;;;;;10.55;100.00;101434.28;4994386;28;20128;-59
2022/11/02 06:02:22;;;;;;;9.35;1.92;;;;;;;10.47;100.00;101415.19;4995344;28;20038;-55
2022/11/02 06:04:47;;;;;;;7.72;1.80;;;;;;;10.91;100.00;101495.78;4995494;28;20034;-55
2022/11/02 06:07:13;;;;;;;10.10;2.00;;;;;;;10.93;100.00;101504.50;4993979;28;20529;-50
2022/11/02 06:09:38;;;;;;;8.68;1.83;;;;;;;10.53;100.00;101440.50;4994571;28;20042;-52
2022/11/02 06:12:03;;;;;;;6.78;1.60;;;;;;;10.54;100.00;101439.56;4995233;28;20034;-52
2022/11/02 06:14:29;;;;;;;10.35;1.75;;;;;;;10.88;100.00;101511.66;4995369;28;20074;-57
2022/11/02 06:16:54;;;;;;;11.25;1.85;;;;;;;10.88;100.00;101534.50;4994070;28;20042;-53
2022/11/02 06:19:19;;;;;;;8.15;1.52;;;;;;;10.61;100.00;101485.94;4995171;28;20034;-54
2022/11/02 06:21:45;;;;;;;8.93;1.65;;;;;;;10.97;100.00;101555.34;4995137;28;20061;-57
2022/11/02 06:24:10;;;;;;;11.85;2.10;;;;;;;10.92;100.00;101536.13;4994989;28;20040;-55
2022/11/02 06:26:35;;;;;;;10.95;2.10;;;;;;;10.93;100.00;101553.69;5009982;28;20041;-55
2022/11/02 06:29:00;;;;;;;11.18;1.80;;;;;;;10.49;100.00;101491.47;4995428;28;20540;-56
2022/11/02 06:31:26;;;;;;;6.63;1.60;;;;;;;10.69;100.00;101542.78;4994948;28;20034;-52
2022/11/02 06:33:51;;;;;;;7.95;1.80;;;;;;;10.81;100.00;101572.38;5009920;28;20046;-54
2022/11/02 06:36:16;;;;;;;13.40;2.45;;;;;;;10.72;100.00;101568.19;4994349;28;20038;-55
2022/11/02 06:38:42;;;;;;;8.30;1.85;;;;;;;10.76;100.00;101577.75;4994861;28;20045;-52
2022/11/02 06:41:08;;;;;;;10.23;1.80;;;;;;;10.44;100.00;101532.81;4994554;28;20113;-52
2022/11/02 06:43:36;;;;;;;8.00;2.03;;;;;;;10.77;100.00;101582.09;4994955;28;20177;-51
2022/11/02 06:46:02;;;;;;;8.23;1.85;;;;;;;10.53;100.00;101541.41;4993345;28;20125;-53
2022/11/02 06:48:28;;;;;;;7.85;1.77;;;;;;;10.92;100.00;101602.84;4993391;28;20126;-55
2022/11/02 06:50:53;;;;;;;11.82;2.13;;;;;;;10.98;100.00;101599.22;4994681;28;20045;-55
2022/11/02 06:53:18;;;;;;;6.80;1.52;;;;;;;10.57;100.00;101545.69;4976999;28;20034;-52
2022/11/02 06:55:44;;;;;;;9.23;1.77;;;;;;;11.04;100.00;101628.06;4994559;28;20050;-55
2022/11/02 06:58:09;;;;;;;8.18;2.00;;;;;;;10.81;100.00;101590.81;5009851;28;20037;-58
2022/11/02 07:00:34;;;;;;;11.23;2.35;;;;;;;11.05;100.00;101643.84;4994688;28;20038;-53
2022/11/02 07:03:05;;;;;;;8.45;1.95;;;;;;;11.05;100.00;101654.38;4994468;28;20066;-59
2022/11/02 07:05:31;;;;;;;8.38;1.98;;;;;;;11.12;100.00;101636.69;5009651;28;20393;-55
2022/11/02 07:07:56;;;;;;;7.97;2.30;;;;;;;11.11;100.00;101666.56;4994391;28;20037;-52
2022/11/02 07:10:22;;;;;;;9.68;1.83;;;;;;;11.14;100.00;101661.22;5009382;28;20038;-52
2022/11/02 07:12:50;;;;;;;9.23;1.95;;;;;;;11.03;100.00;101661.44;4994323;28;20042;-51
2022/11/02 07:15:16;;;;;;;9.50;1.88;;;;;;;11.05;100.00;101658.78;4994167;28;20026;-54
2022/11/02 07:17:41;;;;;;;17.65;2.38;;;;;;;11.00;100.00;101673.84;4994298;28;20041;-51
2022/11/02 07:20:09;;;;;;;8.40;1.90;;;;;;;10.83;100.00;101652.25;4994167;28;20034;-52
2022/11/02 07:22:35;;;;;;;4.75;1.65;;;;;;;10.96;100.00;101680.06;5008904;28;20507;-55
2022/11/02 07:25:00;;;;;;;10.02;2.25;;;;;;;10.92;100.00;101684.50;4993850;28;20113;-54
2022/11/02 07:27:25;;;;;;;8.20;1.52;;;;;;;10.58;100.00;101644.81;4994015;28;20035;-53
2022/11/02 07:29:50;;;;;;;6.18;1.38;;;;;;;10.54;100.00;101626.47;4994058;28;20042;-53
2022/11/02 07:32:16;;;;;;;12.45;2.28;;;;;;;10.94;100.00;101688.00;4993853;28;20038;-53
2022/11/02 07:34:41;;;;;;;10.93;2.10;;;;;;;10.96;100.00;101706.38;4993905;28;20043;-55
2022/11/02 07:37:06;;;;;;;9.60;1.75;;;;;;;10.91;100.00;101703.00;5008894;28;20049;-50
2022/11/02 07:39:32;;;;;;;10.00;1.90;;;;;;;10.92;100.00;101720.50;4993551;28;20041;-49
2022/11/02 07:41:57;;;;;;;9.50;1.88;;;;;;;10.96;100.00;101720.44;4993891;28;20398;-51
2022/11/02 07:44:22;;;;;;;8.80;1.98;;;;;;;10.92;100.00;101738.94;4993667;28;20157;-53
2022/11/02 07:46:48;;;;;;;10.77;1.95;;;;;;;10.89;100.00;101720.56;4993645;28;20467;-50
2022/11/02 07:49:13;;;;;;;8.63;1.67;;;;;;;10.86;100.00;101732.03;4992881;28;20077;-55
2022/11/02 07:51:38;;;;;;;8.48;1.85;;;;;;;10.87;100.00;101725.88;4993330;28;20039;-48
2022/11/02 07:54:04;;;;;;;16.30;2.92;;;;;;;10.43;100.00;101660.03;4993458;28;20034;-53
2022/11/02 07:56:29;;;;;;;13.00;2.28;;;;;;;10.68;100.00;101699.03;4991902;28;20054;-55
2022/11/02 07:58:54;;;;;;;6.45;1.42;;;;;;;10.89;100.00;101729.34;4993425;28;20478;-52
2022/11/02 08:01:20;;;;;;;9.82;2.38;;;;;;;10.62;100.00;101671.97;4993379;28;20046;-50
2022/11/02 08:03:45;;;;;;;8.02;1.58;;;;;;;10.84;100.00;101689.06;4993386;28;20041;-54
2022/11/02 08:06:10;;;;;;;5.75;1.58;;;;;;;11.37;100.00;101747.69;4993253;28;20401;-59
2022/11/02 08:08:35;;;;;;;11.32;3.20;;;;;;;11.51;100.00;101762.31;4991941;28;20034;-56
2022/11/02 08:11:06;;;;;;;9.93;1.95;;;;;;;11.48;100.00;101743.06;4993402;28;20121;-56
2022/11/02 08:13:31;;;;;;;9.30;1.75;;;;;;;11.62;100.00;101768.22;4993183;28;20034;-54
2022/11/02 08:15:57;;;;;;;9.15;1.60;;;;;;;11.63;100.00;101769.09;4992138;28;20277;-53
2022/11/02 08:18:24;;;;;;;7.93;1.90;;;;;;;11.37;100.00;101702.88;5008375;28;20394;-51
2022/11/02 08:20:50;;;;;;;10.43;2.13;;;;;;;11.69;100.00;101759.31;5008308;28;20034;-50
2022/11/02 08:23:16;;;;;;;7.28;1.60;;;;;;;11.52;100.00;101736.81;4992993;28;20042;-56
2022/11/02 08:25:44;;;;;;;11.73;2.35;;;;;;;11.29;100.00;101709.19;4991947;28;20026;-49
2022/11/02 08:28:21;;;;;;;9.60;2.47;;;;;;;11.57;100.00;101756.91;4991774;28;20030;-57
2022/11/02 08:30:46;;;;;;;13.35;3.85;;;;;;;11.40;100.00;101734.44;4992836;28;20027;-53
2022/11/02 08:33:14;;;;;;;11.07;2.72;;;;;;;11.60;100.00;101774.44;4992689;28;20035;-58
2022/11/02 08:35:40;;;;;;;9.30;2.10;;;;;;;11.35;100.00;101716.13;4992819;28;20508;-53
2022/11/02 08:38:06;;;;;;;10.23;3.17;;;;;;;11.63;100.00;101766.47;4992827;28;20034;-56
2022/11/02 08:40:33;;;;;;;11.77;2.22;;;;;;;11.76;100.00;101784.63;5006766;28;20035;-52
2022/11/02 08:42:59;;;;;;;9.30;1.98;;;;;;;11.80;100.00;101796.88;4991140;28;20142;-52
2022/11/02 08:45:29;;;;;;;8.75;2.00;;;;;;;11.76;100.00;101782.00;5005764;28;20378;-55
2022/11/02 08:47:54;;;;;;;4.43;1.75;;;;;;;11.82;100.00;101796.84;4991065;28;20030;-52
2022/11/02 08:50:21;;;;;;;10.38;2.00;;;;;;;11.50;100.00;101744.75;4991137;28;20045;-55
2022/11/02 08:52:46;;;;;;;5.93;1.42;;;;;;;11.60;100.00;101746.31;4989689;28;20100;-50
2022/11/02 08:55:11;;;;;;;6.53;1.67;;;;;;;12.00;100.00;101814.00;4990828;28;20054;-59
2022/11/02 08:57:48;;;;;;;11.25;1.40;;;;;;;12.06;100.00;101821.78;5006433;28;20126;-54
2022/11/02 09:00:14;;;;;;;8.38;1.77;;;;;;;11.75;100.00;101761.81;4993385;28;20382;-60
2022/11/02 09:02:39;;;;;;;9.82;1.73;;;;;;;12.06;100.00;101813.88;4995052;28;20081;-52
2022/11/02 09:05:05;;;;;;;13.30;2.38;;;;;;;12.03;100.00;101817.44;4995116;28;20667;-50
2022/11/02 09:07:30;;;;;;;8.30;1.90;;;;;;;11.87;100.00;101778.28;4993874;28;20355;-51
2022/11/02 09:09:55;;;;;;;9.25;1.77;;;;;;;11.82;100.00;101767.84;4995097;28;20035;-56
2022/11/02 09:12:21;;;;;;;8.00;2.15;;;;;;;11.86;100.00;101777.41;5009980;28;20042;-52
2022/11/02 09:14:46;;;;;;;8.65;2.08;;;;;;;12.18;100.00;101825.03;4995216;28;20061;-51
2022/11/02 09:17:11;;;;;;;7.95;1.85;;;;;;;12.19;100.00;101831.19;4994445;28;20065;-51
2022/11/02 09:19:37;;;;;;;9.40;1.80;;;;;;;11.93;100.00;101781.66;4994715;28;20038;-50
2022/11/02 09:22:02;;;;;;;9.18;1.77;;;;;;;12.36;100.00;101829.00;4994645;28;20042;-49
2022/11/02 09:24:27;;;;;;;11.02;2.75;;;;;;;12.27;100.00;101777.28;4994693;28;20039;-52
2022/11/02 09:26:53;;;;;;;9.55;2.05;;;;;;;12.70;100.00;101844.88;4995015;28;20042;-50
2022/11/02 09:29:18;;;;;;;6.88;2.17;;;;;;;12.74;100.00;101846.53;4994714;28;20038;-57
2022/11/02 09:31:43;;;;;;;7.53;1.83;;;;;;;12.66;100.00;101844.09;4994194;28;20096;-55
2022/11/02 09:34:09;;;;;;;6.68;1.70;;;;;;;12.77;100.00;101854.41;4994331;28;20494;-57
2022/11/02 09:36:34;;;;;;;9.07;2.20;;;;;;;12.37;100.00;101799.06;4994829;28;20526;-49
2022/11/02 09:39:00;;;;;;;8.88;2.00;;;;;;;12.71;100.00;101863.34;4994638;28;20093;-55
2022/11/02 09:41:28;;;;;;;10.05;2.67;;;;;;;12.70;100.00;101858.94;4994095;28;20648;-53
2022/11/02 09:44:04;;;;;;;11.48;2.15;;;;;;;12.67;100.00;101871.38;4994253;28;20041;-53
2022/11/02 09:46:32;;;;;;;17.88;2.63;;;;;;;12.67;100.00;101869.59;5009020;28;20034;-48
2022/11/02 09:49:02;;;;;;;7.07;1.70;;;;;;;12.68;100.00;101859.91;4994484;28;20045;-52
2022/11/02 09:51:34;;;;;;;7.50;1.92;;;;;;;12.81;100.00;101842.84;4994026;28;20478;-57
2022/11/02 09:54:01;;;;;;;10.23;2.03;;;;;;;12.93;100.00;101879.50;5008826;28;20034;-53
2022/11/02 09:56:28;;;;;;;11.10;2.17;;;;;;;13.04;100.00;101879.25;5009011;28;20089;-52
2022/11/02 09:58:58;;;;;;;9.95;2.42;;;;;;;13.10;100.00;101852.69;4993628;28;20455;-56
2022/11/02 10:01:48;;;;;;;12.95;2.85;;;;;;;13.37;100.00;101871.31;4992568;28;20381;-53
2022/11/02 10:04:17;;;;;;;8.80;2.10;;;;;;;13.46;100.00;101891.34;4992270;28;20034;-54
2022/11/02 10:06:47;;;;;;;9.13;2.40;;;;;;;13.33;100.00;101827.38;4993761;28;20110;-54
2022/11/02 10:09:24;;;;;;;10.57;1.75;;;;;;;13.66;100.00;101881.06;5008323;28;20352;-52
2022/11/02 10:12:11;;;;;;;9.13;1.70;;;;;;;13.78;100.00;101887.78;4992895;28;20045;-56
2022/11/02 10:14:38;;;;;;;10.68;2.40;;;;;;;13.82;100.00;101873.56;4994078;28;20042;-52
2022/11/02 10:17:13;;;;;;;10.30;2.20;;;;;;;13.74;100.00;101875.56;4993661;28;20045;-49
2022/11/02 10:19:40;;;;;;;12.30;2.33;;;;;;;13.71;100.00;101870.38;5008946;28;20111;-51
2022/11/02 10:22:09;;;;;;;8.85;1.92;;;;;;;13.71;100.00;101883.59;4992439;28;20030;-57
2022/11/02 10:24:41;;;;;;;10.50;2.20;;;;;;;13.32;100.00;101812.41;5008602;28;20034;-54
2022/11/02 10:27:14;;;;;;;6.80;1.70;;;;;;;13.77;100.00;101907.22;5002195;28;20041;-52
2022/11/02 10:29:55;;;;;;;6.80;1.98;;;;;;;13.75;100.00;101920.50;5003864;28;20511;-54
2022/11/02 10:32:20;;;;;;;7.87;1.93;;;;;;;13.68;100.00;101899.56;4990579;28;20038;-51
2022/11/02 10:34:46;;;;;;;8.93;2.45;;;;;;;13.78;100.00;101901.88;4993212;28;20042;-54
2022/11/02 10:37:17;;;;;;;8.02;2.05;;;;;;;13.95;100.00;101909.34;4993625;28;20046;-55
2022/11/02 10:40:07;;;;;;;6.45;2.08;;;;;;;13.82;100.00;101839.16;4977790;28;20554;-53
2022/11/02 10:42:41;;;;;;;10.27;1.97;;;;;;;14.27;100.00;101918.97;4991884;28;20038;-58
2022/11/02 10:45:17;;;;;;;10.18;2.33;;;;;;;14.27;100.00;101925.16;4992183;28;20026;-50
2022/11/02 10:47:57;;;;;;;10.50;2.58;;;;;;;14.24;100.00;101917.31;4992299;28;20140;-52
2022/11/02 10:50:30;;;;;;;13.00;2.83;;;;;;;14.25;100.00;101905.78;4993644;28;20508;-47
2022/11/02 10:52:59;;;;;;;9.38;2.47;;;;;;;14.30;100.00;101901.19;4988561;28;20117;-57
2022/11/02 10:55:31;;;;;;;9.20;2.80;;;;;;;14.24;100.00;101893.47;4989656;28;20046;-51
2022/11/02 10:57:58;;;;;;;8.15;2.38;;;;;;;14.28;100.00;101892.44;4992870;28;20062;-55
2022/11/02 11:00:32;;;;;;;12.05;2.70;;;;;;;14.24;100.00;101892.59;4998254;28;20113;-51
2022/11/02 11:03:02;;;;;;;8.75;2.33;;;;;;;13.98;100.00;101843.94;4993510;28;20030;-53
2022/11/02 11:05:27;;;;;;;8.38;2.03;;;;;;;14.30;100.00;101887.09;4976670;28;20107;-53
2022/11/02 11:07:53;;;;;;;9.60;2.28;;;;;;;14.31;100.00;101876.44;4991357;28;20052;-50
2022/11/02 11:10:18;;;;;;;10.63;2.10;;;;;;;14.19;100.00;101875.97;5002047;28;20445;-50
2022/11/02 11:12:45;;;;;;;12.15;2.22;;;;;;;14.15;100.00;101874.34;4992581;28;20378;-55
2022/11/02 11:15:21;;;;;;;10.80;2.35;;;;;;;14.02;100.00;101865.88;5006872;28;20073;-56
2022/11/02 11:17:47;;;;;;;10.25;2.28;;;;;;;13.67;100.00;101810.50;4960407;28;20084;-54
2022/11/02 11:20:32;;;;;;;11.07;2.60;;;;;;;13.84;100.00;101880.53;4982748;28;20541;-49
2022/11/02 11:23:23;;;;;;;10.18;2.03;;;;;;;13.79;100.00;101889.53;4987668;28;20122;-49
2022/11/02 11:26:07;;;;;;;8.18;2.00;;;;;;;13.70;100.00;101873.91;4992481;28;20026;-50
2022/11/02 11:28:39;;;;;;;8.45;1.98;;;;;;;13.64;100.00;101832.63;4975013;28;20053;-50
2022/11/02 11:31:06;;;;;;;13.52;3.08;;;;;;;13.84;100.00;101850.56;4977373;28;20427;-51